Chancay, Peru
Current Conditions -  °F | °C
As of 8:00 PM on Wednesday 17 Dec 2014 (Local Time) from SPIM Reporting Station
Overcast Overcast  
Wind Chill: 68°   Ceiling: 3000
Heat Index: 68°   Visibility: 6mi
Dew Point: 63°   Wind: 8mph
Humidity: 83%   Direction: 170°S
Pressure: 30"   Gusts: NA
Location:  11.56°S, 77.27°W
Report Text: SPIM 180100Z 17007KT 9999 FEW011 OVC030 20/17 Q1016 NOSIG RMK PP000
Loading
Personal Weather Stations






























Interactive Weather Map New forecast layout! Learn more

10-Day Weather Forecast

Advertisements
Track Severe Weather on mobile